Leesburg International Airport Leesburg US
ICAO: KLEE
IATA: LEE
Category: Medium
Scheduled Services: No

Elevation: 76 ft
TransAlt. 18000 ft.

Airport Communications:
ORLANDO APP/DEP:121.1
ASOS:134.325
CTAF/UNICOM:122.725

KLEE Zoom In..

Runways:

(A) RW 03 length 4957 ft width 100 ft
---- / hdg 40

(B) RW 13 length 6300 ft width 100 ft
---- / hdg 135

(C) RW 21 length 4957 ft width 100 ft
---- / hdg 220

(D) RW 31 length 6300 ft width 100 ft
---- / hdg 315

Location; KLEE
Day. 22 / Time. 23.53 Zulu
* Altimeter: 30.06
* Temperature: 23° c. 73.4°f.
* Wind from: 130° Speed 03 kn.
Dewpoint: 17° c.
Visibility: 10 Statute Miles.
Clouds: Scattered 8000 ft.
Clouds: Broken 11000 ft.

KLEE 222353Z AUTO 13003KT 10SM SCT080 BKN110 23/17 A3006 RMK AO2 SLP177 T02330167 10267 20222 53008


Wind From 130°
Speed 03 kn.

YouTube Music Video
 
jpsmedia.com for Web Design  worldairports.se 2018   terms of use